Time;durP1;ratioP1;P1;durP2;ratioP2;P2;SDS_P1;SDS_P2;PMS_P1;PMS_P2;Temp;Humidity;BMP_temperature;BMP_pressure;BME280_temperature;BME280_humidity;BME280_pressure;Samples;Min_cycle;Max_cycle;Signal;HPM_P1;HPM_P2
2022/10/13 00:01:26;;;;;;;25.88;11.98;;;11.80;99.90;;;;;;5089433;28;20858;-53
2022/10/13 00:03:52;;;;;;;22.00;10.00;;;11.90;99.90;;;;;;5090482;28;20379;-52
2022/10/13 00:06:22;;;;;;;21.05;10.32;;;11.10;99.90;;;;;;5090352;28;20457;-52
2022/10/13 00:08:48;;;;;;;27.45;12.10;;;11.70;99.90;;;;;;5087436;28;20378;-52
2022/10/13 00:11:15;;;;;;;24.90;12.27;;;11.60;99.90;;;;;;5089940;28;20886;-53
2022/10/13 00:13:42;;;;;;;28.15;12.50;;;11.60;99.90;;;;;;5089131;28;20386;-53
2022/10/13 00:16:10;;;;;;;25.98;12.52;;;11.90;99.90;;;;;;5086707;28;20389;-53
2022/10/13 00:18:36;;;;;;;25.35;12.20;;;11.90;99.90;;;;;;5089090;28;20457;-53
2022/10/13 00:21:07;;;;;;;26.00;12.10;;;11.90;99.90;;;;;;5089530;28;20461;-53
2022/10/13 00:23:33;;;;;;;23.88;12.00;;;12.00;99.90;;;;;;5086864;28;20378;-53
2022/10/13 00:26:03;;;;;;;26.97;12.80;;;12.00;99.90;;;;;;5089392;28;20465;-53
2022/10/13 00:28:28;;;;;;;28.30;12.88;;;12.10;99.90;;;;;;5086367;28;20389;-53
2022/10/13 00:30:54;;;;;;;29.90;12.60;;;12.00;99.90;;;;;;5088995;28;20489;-52
2022/10/13 00:33:20;;;;;;;28.98;12.88;;;12.10;99.90;;;;;;5089371;28;20420;-52
2022/10/13 00:35:47;;;;;;;24.57;12.30;;;12.00;99.90;;;;;;5093171;28;20383;-52
2022/10/13 00:38:15;;;;;;;30.17;13.90;;;12.00;99.90;;;;;;5093878;28;20385;-52
2022/10/13 00:40:51;;;;;;;27.90;13.30;;;12.00;99.90;;;;;;5092962;28;20457;-52
2022/10/13 00:43:23;;;;;;;34.20;12.75;;;12.00;99.90;;;;;;5092055;28;20409;-53
2022/10/13 00:45:50;;;;;;;27.67;13.97;;;12.20;99.90;;;;;;5090693;28;20846;-52
2022/10/13 00:48:24;;;;;;;27.52;13.13;;;12.10;99.90;;;;;;5093632;28;20878;-52
2022/10/13 00:50:50;;;;;;;29.73;14.15;;;12.10;99.90;;;;;;5090064;28;20730;-53
2022/10/13 00:53:18;;;;;;;30.23;13.77;;;12.10;99.90;;;;;;5093293;28;20386;-52
2022/10/13 00:55:45;;;;;;;27.53;13.00;;;12.10;99.90;;;;;;5092767;28;20382;-52
2022/10/13 00:58:15;;;;;;;30.95;13.07;;;12.10;99.90;;;;;;5074937;28;20766;-52
2022/10/13 01:00:44;;;;;;;34.40;13.50;;;12.00;99.90;;;;;;5092583;28;20401;-53
2022/10/13 01:03:10;;;;;;;30.80;13.90;;;12.00;99.90;;;;;;5090420;28;20414;-53
2022/10/13 01:05:36;;;;;;;30.70;14.07;;;12.20;99.90;;;;;;5092784;28;20465;-52
2022/10/13 01:08:03;;;;;;;32.78;13.93;;;12.00;99.90;;;;;;5092899;28;20926;-53
2022/10/13 01:10:33;;;;;;;27.80;13.32;;;12.10;99.90;;;;;;5089862;28;20397;-53
2022/10/13 01:13:22;;;;;;;34.17;13.30;;;12.10;99.90;;;;;;5093748;28;20420;-52
2022/10/13 01:16:07;;;;;;;30.77;13.20;;;12.00;99.90;;;;;;5091957;28;20378;-53
2022/10/13 01:18:41;;;;;;;29.75;12.38;;;12.10;99.90;;;;;;5090062;28;20435;-52
2022/10/13 01:21:18;;;;;;;29.92;13.48;;;12.10;99.90;;;;;;5092835;28;20453;-52
2022/10/13 01:24:01;;;;;;;26.42;12.63;;;12.10;99.90;;;;;;5092258;28;20378;-52
2022/10/13 01:26:30;;;;;;;29.90;12.68;;;12.10;99.90;;;;;;5091593;28;20406;-54
2022/10/13 01:29:04;;;;;;;31.60;13.35;;;12.10;99.90;;;;;;5093082;28;20382;-52
2022/10/13 01:31:51;;;;;;;29.85;13.60;;;12.00;99.90;;;;;;5089559;28;20406;-53
2022/10/13 01:34:29;;;;;;;32.65;13.13;;;12.10;99.90;;;;;;5091840;28;20435;-52
2022/10/13 01:37:06;;;;;;;32.47;13.90;;;12.20;99.90;;;;;;5089863;28;20382;-53
2022/10/13 01:39:42;;;;;;;30.10;12.80;;;12.30;99.90;;;;;;5089836;28;20370;-53
2022/10/13 01:42:16;;;;;;;30.08;12.75;;;12.30;99.90;;;;;;5089537;28;20409;-52
2022/10/13 01:44:47;;;;;;;24.50;11.43;;;12.30;99.90;;;;;;5091963;28;20393;-52
2022/10/13 01:47:14;;;;;;;24.30;10.97;;;12.20;99.90;;;;;;5091737;28;20370;-52
2022/10/13 01:49:42;;;;;;;28.67;11.45;;;12.10;99.90;;;;;;5091692;28;20424;-53
2022/10/13 01:52:12;;;;;;;26.15;12.50;;;12.20;99.90;;;;;;5091774;28;20382;-52
2022/10/13 01:54:37;;;;;;;30.88;12.48;;;12.20;99.90;;;;;;5091475;28;20843;-53
2022/10/13 01:57:03;;;;;;;28.77;12.40;;;12.30;99.90;;;;;;5092305;28;20388;-52
2022/10/13 01:59:32;;;;;;;29.77;14.00;;;12.30;99.90;;;;;;5091599;28;21016;-54
2022/10/13 02:02:06;;;;;;;27.42;13.77;;;12.20;99.90;;;;;;5091969;28;20445;-53
2022/10/13 02:04:49;;;;;;;30.77;12.73;;;12.20;99.90;;;;;;5089137;28;20382;-52
2022/10/13 02:07:17;;;;;;;27.00;12.50;;;12.20;99.90;;;;;;5090470;28;20440;-52
2022/10/13 02:09:49;;;;;;;26.52;11.90;;;12.10;99.90;;;;;;5091231;28;21059;-52
2022/10/13 02:12:26;;;;;;;26.10;12.70;;;12.10;99.90;;;;;;5090292;28;20392;-52
2022/10/13 02:14:55;;;;;;;27.85;12.40;;;12.10;99.90;;;;;;5089422;28;20405;-52
2022/10/13 02:17:21;;;;;;;24.70;11.52;;;12.20;99.90;;;;;;5091807;28;20387;-52
2022/10/13 02:19:47;;;;;;;27.02;12.30;;;12.20;99.90;;;;;;5072680;28;20443;-53
2022/10/13 02:22:15;;;;;;;28.63;11.65;;;12.20;99.90;;;;;;5091980;28;20440;-52
2022/10/13 02:24:40;;;;;;;23.20;11.80;;;12.10;99.90;;;;;;5091231;28;20394;-52
2022/10/13 02:27:07;;;;;;;23.33;10.52;;;12.10;99.90;;;;;;5092056;28;20769;-52
2022/10/13 02:29:33;;;;;;;25.13;11.85;;;12.10;99.90;;;;;;5090652;28;20951;-52
2022/10/13 02:31:59;;;;;;;25.73;11.70;;;12.00;99.90;;;;;;5070144;28;20518;-52
2022/10/13 02:34:24;;;;;;;30.37;12.90;;;12.00;99.90;;;;;;5071389;28;20474;-52
2022/10/13 02:36:50;;;;;;;28.30;12.63;;;12.00;99.90;;;;;;5070494;28;20382;-52
2022/10/13 02:39:16;;;;;;;27.90;12.20;;;12.20;99.90;;;;;;5070827;28;20375;-52
2022/10/13 02:41:42;;;;;;;23.53;12.03;;;12.30;99.90;;;;;;5070298;28;20403;-52
2022/10/13 02:44:08;;;;;;;25.50;11.77;;;12.30;99.90;;;;;;5071157;28;20384;-52
2022/10/13 02:46:34;;;;;;;25.90;12.48;;;12.30;99.90;;;;;;5070874;28;20887;-52
2022/10/13 02:48:59;;;;;;;29.17;12.50;;;12.40;99.90;;;;;;5070835;28;20492;-52
2022/10/13 02:51:25;;;;;;;27.63;12.60;;;12.50;99.90;;;;;;5070356;28;20368;-53
2022/10/13 02:53:51;;;;;;;27.40;12.83;;;12.40;99.90;;;;;;5070376;28;20404;-52
2022/10/13 02:56:17;;;;;;;28.30;12.20;;;12.40;99.90;;;;;;5070911;28;20380;-52
2022/10/13 02:58:43;;;;;;;25.25;12.50;;;12.40;99.90;;;;;;5069001;28;20394;-52
2022/10/13 03:01:11;;;;;;;28.70;12.33;;;12.40;99.90;;;;;;5070615;28;20932;-52
2022/10/13 03:03:37;;;;;;;32.45;13.80;;;12.40;99.90;;;;;;5069737;28;20752;-52
2022/10/13 03:06:04;;;;;;;31.17;11.90;;;12.30;99.90;;;;;;5069482;28;20441;-52
2022/10/13 03:08:31;;;;;;;31.05;12.20;;;12.30;99.90;;;;;;5067436;28;20380;-54
2022/10/13 03:10:57;;;;;;;30.27;13.30;;;12.20;99.90;;;;;;5070759;28;20724;-52
2022/10/13 03:13:22;;;;;;;29.00;13.67;;;12.40;99.90;;;;;;5070942;28;20384;-52
2022/10/13 03:15:48;;;;;;;32.17;13.77;;;12.20;99.90;;;;;;5069948;28;20379;-52
2022/10/13 03:18:14;;;;;;;34.50;14.47;;;12.30;99.90;;;;;;5070253;28;20383;-52
2022/10/13 03:20:39;;;;;;;29.20;13.40;;;12.40;99.90;;;;;;5069280;28;20804;-52
2022/10/13 03:23:08;;;;;;;28.03;13.80;;;12.30;99.90;;;;;;5070573;28;20391;-52
2022/10/13 03:25:34;;;;;;;29.75;13.32;;;12.30;99.90;;;;;;5069792;28;20398;-52
2022/10/13 03:28:00;;;;;;;28.25;13.10;;;12.30;99.90;;;;;;5070381;28;20372;-52
2022/10/13 03:30:25;;;;;;;31.60;13.80;;;12.30;99.90;;;;;;5069775;28;20387;-52
2022/10/13 03:32:51;;;;;;;30.00;13.97;;;12.20;99.90;;;;;;5087197;28;20459;-52
2022/10/13 03:35:17;;;;;;;32.50;13.57;;;12.20;99.90;;;;;;5090612;28;20822;-53
2022/10/13 03:37:42;;;;;;;31.20;13.50;;;12.30;99.90;;;;;;5089972;28;20461;-52
2022/10/13 03:40:09;;;;;;;30.00;14.25;;;12.40;99.90;;;;;;5089409;28;20551;-53
2022/10/13 03:42:38;;;;;;;29.15;13.82;;;12.40;99.90;;;;;;5085542;28;20425;-52
2022/10/13 03:45:04;;;;;;;32.42;13.85;;;12.30;99.90;;;;;;5090448;28;20374;-52
2022/10/13 03:47:30;;;;;;;29.50;14.30;;;12.20;99.90;;;;;;5089935;28;20381;-54
2022/10/13 03:49:56;;;;;;;34.30;14.50;;;12.20;99.90;;;;;;5089277;28;20378;-52
2022/10/13 03:52:22;;;;;;;31.42;13.50;;;12.20;99.90;;;;;;5065910;28;20411;-52
2022/10/13 03:54:48;;;;;;;34.55;14.88;;;12.20;99.90;;;;;;5068911;28;20462;-52
2022/10/13 03:57:13;;;;;;;34.63;15.13;;;12.30;99.90;;;;;;5070113;28;20378;-52
2022/10/13 03:59:40;;;;;;;36.33;16.90;;;12.40;99.90;;;;;;5068572;28;20376;-52
2022/10/13 04:02:06;;;;;;;33.42;15.98;;;12.40;99.90;;;;;;5069043;28;20423;-52
2022/10/13 04:04:32;;;;;;;34.33;15.10;;;12.40;99.90;;;;;;5069569;28;20395;-52
2022/10/13 04:06:57;;;;;;;32.43;15.10;;;12.50;99.90;;;;;;5069902;28;20899;-52
2022/10/13 04:09:23;;;;;;;33.80;15.48;;;12.50;99.90;;;;;;5069222;28;20372;-52
2022/10/13 04:11:51;;;;;;;34.20;15.23;;;12.50;99.90;;;;;;5068728;28;20558;-52
2022/10/13 04:14:16;;;;;;;32.83;14.70;;;12.50;99.90;;;;;;5069704;28;20380;-52
2022/10/13 04:16:42;;;;;;;29.92;14.00;;;12.60;99.90;;;;;;5068995;28;20719;-52
2022/10/13 04:19:11;;;;;;;30.23;13.57;;;12.60;99.90;;;;;;5067579;28;20432;-52
2022/10/13 04:21:37;;;;;;;32.70;14.35;;;12.50;99.90;;;;;;5065562;28;20952;-52
2022/10/13 04:24:04;;;;;;;32.30;14.63;;;12.60;99.90;;;;;;5064893;28;20424;-52
2022/10/13 04:26:32;;;;;;;26.97;13.97;;;12.50;99.90;;;;;;5069388;28;20376;-54
2022/10/13 04:28:59;;;;;;;32.67;14.30;;;12.50;99.90;;;;;;5076042;28;20402;-52
2022/10/13 04:31:27;;;;;;;32.50;14.55;;;12.60;99.90;;;;;;5087968;28;20417;-52
2022/10/13 04:33:53;;;;;;;31.27;15.30;;;12.50;99.90;;;;;;5061452;28;20422;-53
2022/10/13 04:36:19;;;;;;;32.60;15.03;;;12.50;99.90;;;;;;5068263;28;20914;-53
2022/10/13 04:38:45;;;;;;;34.42;15.63;;;12.40;99.90;;;;;;5088417;28;20374;-52
2022/10/13 04:41:12;;;;;;;34.78;14.50;;;12.60;99.90;;;;;;5089573;28;20382;-52
2022/10/13 04:43:37;;;;;;;33.13;14.43;;;12.40;99.90;;;;;;5076018;28;20495;-53
2022/10/13 04:46:14;;;;;;;31.63;13.88;;;12.40;99.90;;;;;;5077285;28;20457;-52
2022/10/13 04:48:40;;;;;;;31.05;14.25;;;12.40;99.90;;;;;;5075562;28;20437;-52
2022/10/13 04:51:18;;;;;;;30.25;14.25;;;12.40;99.90;;;;;;5085677;28;20382;-53
2022/10/13 04:53:44;;;;;;;32.50;14.30;;;12.40;99.90;;;;;;5073796;28;20438;-52
2022/10/13 04:56:12;;;;;;;28.42;13.10;;;12.40;99.90;;;;;;5080389;28;20765;-52
2022/10/13 04:58:39;;;;;;;32.55;15.20;;;12.30;99.90;;;;;;5081639;28;20378;-52
2022/10/13 05:01:07;;;;;;;28.63;13.63;;;12.30;99.90;;;;;;5073078;28;20421;-54
2022/10/13 05:03:33;;;;;;;31.77;14.07;;;12.30;99.90;;;;;;5071921;28;20406;-55
2022/10/13 05:05:59;;;;;;;29.25;13.95;;;12.30;99.90;;;;;;5088571;28;20378;-54
2022/10/13 05:08:25;;;;;;;31.58;13.73;;;12.30;99.90;;;;;;5089098;28;20386;-55
2022/10/13 05:10:58;;;;;;;33.27;13.93;;;12.30;99.90;;;;;;5067658;28;20403;-55
2022/10/13 05:13:25;;;;;;;35.13;14.20;;;12.30;99.90;;;;;;5063833;28;20408;-55
2022/10/13 05:15:51;;;;;;;30.95;13.23;;;12.20;99.90;;;;;;5059049;28;20425;-55
2022/10/13 05:18:16;;;;;;;28.37;13.90;;;12.20;99.90;;;;;;5062523;28;20843;-55
2022/10/13 05:20:42;;;;;;;26.92;12.73;;;12.30;99.90;;;;;;5060142;28;20411;-55
2022/10/13 05:23:08;;;;;;;28.33;13.77;;;12.30;99.90;;;;;;5060895;28;20798;-55
2022/10/13 05:25:35;;;;;;;29.85;14.13;;;12.30;99.90;;;;;;5062211;28;20388;-55
2022/10/13 05:28:01;;;;;;;34.80;14.40;;;12.30;99.90;;;;;;5062977;28;20471;-54
2022/10/13 05:30:27;;;;;;;33.58;14.73;;;12.30;99.90;;;;;;5061150;28;20934;-55
2022/10/13 05:32:52;;;;;;;33.17;14.50;;;12.30;99.90;;;;;;5089793;28;20485;-52
2022/10/13 05:35:18;;;;;;;29.23;13.30;;;12.40;99.90;;;;;;5092693;28;20905;-52
2022/10/13 05:37:44;;;;;;;33.20;14.07;;;12.40;99.90;;;;;;5092310;28;20378;-52
2022/10/13 05:40:10;;;;;;;29.80;13.77;;;12.50;99.90;;;;;;5091083;28;20409;-52
2022/10/13 05:42:36;;;;;;;28.52;14.63;;;12.50;99.90;;;;;;5091096;28;20413;-52
2022/10/13 05:45:01;;;;;;;31.50;14.10;;;12.60;99.90;;;;;;5092428;28;20374;-53
2022/10/13 05:47:27;;;;;;;27.48;13.50;;;12.70;99.90;;;;;;5093007;28;20488;-52
2022/10/13 05:49:54;;;;;;;25.53;12.70;;;12.70;99.90;;;;;;5091873;28;20447;-52
2022/10/13 05:52:22;;;;;;;26.02;13.93;;;12.80;99.90;;;;;;5092797;28;20378;-52
2022/10/13 05:54:51;;;;;;;28.27;13.27;;;12.80;99.90;;;;;;5091751;28;20382;-52
2022/10/13 05:57:22;;;;;;;27.75;12.90;;;12.90;99.90;;;;;;5092818;28;20453;-52
2022/10/13 06:00:13;;;;;;;29.77;13.37;;;13.10;99.90;;;;;;5092147;28;20366;-52
2022/10/13 06:02:52;;;;;;;30.10;13.85;;;13.10;99.90;;;;;;5091689;28;20765;-53
2022/10/13 06:05:20;;;;;;;24.77;12.55;;;13.10;99.90;;;;;;5084919;28;20401;-52
2022/10/13 06:07:47;;;;;;;26.40;12.40;;;13.20;99.90;;;;;;5092007;28;20393;-52
2022/10/13 06:10:14;;;;;;;32.25;14.07;;;13.20;99.90;;;;;;5091946;28;20386;-52
2022/10/13 06:12:39;;;;;;;32.10;13.05;;;13.30;99.90;;;;;;5091532;28;20393;-52
2022/10/13 06:15:05;;;;;;;30.30;13.00;;;13.30;99.90;;;;;;5092000;28;20382;-52
2022/10/13 06:17:34;;;;;;;29.95;12.32;;;13.30;99.90;;;;;;5091270;28;20378;-53
2022/10/13 06:19:59;;;;;;;27.35;12.30;;;13.40;99.90;;;;;;5092158;28;20374;-53
2022/10/13 06:22:25;;;;;;;29.33;12.77;;;13.40;99.90;;;;;;5074085;28;20393;-53
2022/10/13 06:24:51;;;;;;;27.85;13.15;;;13.50;99.90;;;;;;5091688;28;20374;-53
2022/10/13 06:27:23;;;;;;;26.60;13.70;;;13.70;99.90;;;;;;5091789;28;20402;-53
2022/10/13 06:29:48;;;;;;;26.65;11.23;;;13.70;94.70;;;;;;5090781;28;20456;-53
2022/10/13 06:32:14;;;;;;;25.67;13.00;;;13.60;99.90;;;;;;5091525;28;20508;-52
2022/10/13 06:34:40;;;;;;;30.73;13.23;;;13.70;40.30;;;;;;5091391;28;20697;-53
2022/10/13 06:37:05;;;;;;;26.45;12.70;;;13.70;36.30;;;;;;5092477;28;20374;-53
2022/10/13 06:39:31;;;;;;;25.17;12.23;;;13.70;34.00;;;;;;5091413;28;20393;-55
2022/10/13 06:41:56;;;;;;;33.55;12.50;;;13.30;50.90;;;;;;5091375;28;20447;-52
2022/10/13 06:44:22;;;;;;;24.90;11.70;;;13.60;45.00;;;;;;5092004;28;20374;-53
2022/10/13 06:46:48;;;;;;;27.20;12.40;;;13.70;91.50;;;;;;5090911;28;20868;-53
2022/10/13 06:49:14;;;;;;;27.45;12.82;;;13.70;59.50;;;;;;5091360;28;20378;-53
2022/10/13 06:51:39;;;;;;;27.07;12.13;;;13.80;44.70;;;;;;5090963;28;20766;-53
2022/10/13 06:54:05;;;;;;;25.17;11.70;;;13.70;43.20;;;;;;5091556;28;20386;-53
2022/10/13 06:56:30;;;;;;;24.45;12.48;;;13.80;94.60;;;;;;5090864;28;20453;-53
2022/10/13 06:58:56;;;;;;;24.90;11.73;;;13.80;54.70;;;;;;5091933;28;20373;-53
2022/10/13 07:01:22;;;;;;;23.47;11.37;;;13.90;66.90;;;;;;5091662;28;20843;-53
2022/10/13 07:03:48;;;;;;;28.48;12.18;;;15.20;66.50;;;;;;5090670;28;20739;-53
2022/10/13 07:06:14;;;;;;;24.90;11.18;;;13.90;59.50;;;;;;5073111;28;20379;-53
2022/10/13 07:08:40;;;;;;;22.13;11.32;;;14.00;57.10;;;;;;5090591;28;20389;-53
2022/10/13 07:11:13;;;;;;;24.77;11.95;;;14.00;64.20;;;;;;5091267;28;20370;-53
2022/10/13 07:13:41;;;;;;;23.63;11.48;;;14.00;52.10;;;;;;5090734;28;20396;-53
2022/10/13 07:16:07;;;;;;;25.23;11.57;;;14.00;55.70;;;;;;5091012;28;20401;-53
2022/10/13 07:18:33;;;;;;;24.80;11.40;;;14.20;25.30;;;;;;5090293;28;20424;-55
2022/10/13 07:21:00;;;;;;;22.05;11.35;;;13.80;11.90;;;;;;5090911;28;20378;-53
2022/10/13 07:23:26;;;;;;;24.05;11.73;;;13.00;47.60;;;;;;5091073;28;20612;-53
2022/10/13 07:25:52;;;;;;;29.60;12.48;;;14.50;53.30;;;;;;5090239;28;20476;-53
2022/10/13 07:28:18;;;;;;;27.52;12.10;;;14.60;26.30;;;;;;5090913;28;20382;-53
2022/10/13 07:30:43;;;;;;;20.77;10.63;;;14.80;1.00;;;;;;5090488;28;20393;-53
2022/10/13 07:33:09;;;;;;;26.98;12.43;;;14.80;1.00;;;;;;5090742;28;20374;-53
2022/10/13 07:35:37;;;;;;;27.85;12.70;;;15.00;1.00;;;;;;5090591;28;20802;-57
2022/10/13 07:38:03;;;;;;;25.20;12.65;;;15.10;1.00;;;;;;5091001;28;20374;-53
2022/10/13 07:40:29;;;;;;;26.25;11.68;;;15.40;1.00;;;;;;5090296;28;20379;-53
2022/10/13 07:42:57;;;;;;;27.55;11.93;;;15.70;1.00;;;;;;5089199;28;20933;-53
2022/10/13 07:45:23;;;;;;;24.98;11.68;;;16.10;1.00;;;;;;5090146;28;20377;-53
2022/10/13 07:47:49;;;;;;;24.52;10.40;;;16.50;99.90;;;;;;5089717;28;20388;-53
2022/10/13 07:50:15;;;;;;;23.60;10.90;;;16.80;99.90;;;;;;5090747;28;20731;-53
2022/10/13 07:52:40;;;;;;;21.33;10.23;;;17.60;99.90;;;;;;5071069;28;20405;-53
2022/10/13 07:55:07;;;;;;;22.73;10.87;;;17.20;99.90;;;;;;5090617;28;20457;-53
2022/10/13 07:57:32;;;;;;;25.00;11.20;;;17.20;99.90;;;;;;5090358;28;20382;-55
2022/10/13 07:59:58;;;;;;;21.23;10.40;;;17.20;99.90;;;;;;5089918;28;20382;-53
2022/10/13 08:02:25;;;;;;;20.88;10.48;;;17.20;84.80;;;;;;5072105;28;20414;-53
2022/10/13 08:04:50;;;;;;;19.83;10.02;;;17.30;1.00;;;;;;5089608;28;20391;-53
2022/10/13 08:07:16;;;;;;;19.47;10.43;;;17.60;1.00;;;;;;5090156;28;20431;-53
2022/10/13 08:09:42;;;;;;;22.00;10.82;;;17.70;99.90;;;;;;5089582;28;20472;-53
2022/10/13 08:12:08;;;;;;;22.88;11.27;;;17.70;99.90;;;;;;5090839;28;20914;-53
2022/10/13 08:14:34;;;;;;;25.80;11.93;;;17.40;99.90;;;;;;5090238;28;20470;-53
2022/10/13 08:17:00;;;;;;;24.40;11.10;;;17.60;99.90;;;;;;5090154;28;20370;-53
2022/10/13 08:19:27;;;;;;;19.90;10.20;;;18.20;99.90;;;;;;5090055;28;20378;-53
2022/10/13 08:21:53;;;;;;;22.60;10.07;;;18.90;1.00;;;;;;5089213;28;20779;-53
2022/10/13 08:24:23;;;;;;;19.17;10.20;;;19.40;1.00;;;;;;5089756;28;20405;-53
2022/10/13 08:26:49;;;;;;;20.35;10.50;;;20.10;99.90;;;;;;5090016;28;20390;-54
2022/10/13 08:29:16;;;;;;;20.02;9.85;;;21.10;99.90;;;;;;5090238;28;20377;-54
2022/10/13 08:31:42;;;;;;;24.90;9.50;;;21.60;1.00;;;;;;5089069;28;20535;-55
2022/10/13 08:34:08;;;;;;;19.60;10.27;;;22.10;1.00;;;;;;5089923;28;20452;-55
2022/10/13 08:36:33;;;;;;;19.73;9.40;;;22.90;1.00;;;;;;5089301;28;20520;-57
2022/10/13 08:38:59;;;;;;;20.80;9.97;;;22.70;1.00;;;;;;5089699;28;20409;-55
2022/10/13 08:41:29;;;;;;;18.97;9.27;;;23.20;1.00;;;;;;5090541;28;20378;-54
2022/10/13 08:44:34;;;;;;;19.20;9.43;;;23.10;1.00;;;;;;5089265;28;20382;-54
2022/10/13 08:47:18;;;;;;;19.17;9.40;;;22.90;1.00;;;;;;5089768;28;20760;-55
2022/10/13 08:49:45;;;;;;;19.05;8.70;;;22.90;1.00;;;;;;5089122;28;20381;-56
2022/10/13 08:52:24;;;;;;;18.48;9.00;;;22.60;1.00;;;;;;5090083;28;20385;-55
2022/10/13 08:54:52;;;;;;;16.63;8.43;;;22.50;1.00;;;;;;5089667;28;20430;-55
2022/10/13 08:57:18;;;;;;;19.55;9.05;;;22.60;1.00;;;;;;5093023;28;20489;-55
2022/10/13 08:59:43;;;;;;;20.23;8.90;;;22.60;1.00;;;;;;5093061;28;20886;-55
2022/10/13 09:02:20;;;;;;;17.88;8.70;;;22.50;1.00;;;;;;5093597;28;20457;-55
2022/10/13 09:04:49;;;;;;;22.03;8.47;;;22.70;1.00;;;;;;5093009;28;20770;-54
2022/10/13 09:07:20;;;;;;;17.15;7.93;;;22.10;1.00;;;;;;5093334;28;20414;-55
2022/10/13 09:09:49;;;;;;;18.02;8.10;;;21.50;1.00;;;;;;5092587;28;20370;-54
2022/10/13 09:12:15;;;;;;;14.48;7.40;;;21.20;1.00;;;;;;5093533;28;20389;-54
2022/10/13 09:14:40;;;;;;;18.55;7.80;;;21.20;1.00;;;;;;5092827;28;20731;-54
2022/10/13 09:17:15;;;;;;;18.55;7.55;;;21.20;1.00;;;;;;5093696;28;20378;-54
2022/10/13 09:19:41;;;;;;;16.60;7.00;;;20.60;1.00;;;;;;5093399;28;20465;-54
2022/10/13 09:22:30;;;;;;;20.13;7.88;;;20.20;1.00;;;;;;5093075;28;20483;-54
2022/10/13 09:25:05;;;;;;;18.30;8.10;;;20.30;1.00;;;;;;5092178;28;20452;-54
2022/10/13 09:28:00;;;;;;;18.77;8.03;;;20.20;1.00;;;;;;5093366;28;20386;-55
2022/10/13 09:30:34;;;;;;;20.63;7.90;;;19.80;1.00;;;;;;5090910;28;20389;-54
2022/10/13 09:33:10;;;;;;;17.08;7.70;;;19.40;1.00;;;;;;5107879;28;20425;-54
2022/10/13 09:35:41;;;;;;;18.45;8.05;;;19.00;1.00;;;;;;5092188;28;20719;-55
2022/10/13 09:38:12;;;;;;;18.90;8.20;;;18.80;1.00;;;;;;5092916;28;20366;-54
2022/10/13 09:40:39;;;;;;;17.52;7.60;;;18.90;1.00;;;;;;5092462;28;20848;-54
2022/10/13 09:43:39;;;;;;;18.10;7.80;;;18.90;1.00;;;;;;5093047;28;20800;-54
2022/10/13 09:46:40;;;;;;;19.65;7.50;;;19.00;1.00;;;;;;5092613;28;20370;-54
2022/10/13 09:49:37;;;;;;;17.13;7.00;;;19.00;1.00;;;;;;5092484;28;20439;-54
2022/10/13 09:52:16;;;;;;;16.13;7.05;;;18.70;1.00;;;;;;5057084;28;20397;-55
2022/10/13 09:54:54;;;;;;;16.58;7.40;;;18.20;80.80;;;;;;5091963;28;20366;-55
2022/10/13 09:57:34;;;;;;;20.73;8.50;;;18.10;99.90;;;;;;5092990;28;20370;-54
2022/10/13 10:00:13;;;;;;;16.35;7.82;;;18.20;99.90;;;;;;5074376;28;20386;-54
2022/10/13 10:03:18;;;;;;;17.08;7.82;;;18.30;99.90;;;;;;5091633;28;20409;-55
2022/10/13 10:05:56;;;;;;;16.48;8.20;;;18.10;99.90;;;;;;5090870;28;20394;-55
2022/10/13 10:08:56;;;;;;;15.60;8.10;;;18.10;99.90;;;;;;5091653;28;20477;-54
2022/10/13 10:11:36;;;;;;;15.80;7.10;;;18.30;99.90;;;;;;5092588;28;20374;-54
2022/10/13 10:14:24;;;;;;;16.47;7.20;;;18.50;99.90;;;;;;5091919;28;20382;-54
2022/10/13 10:17:08;;;;;;;17.40;7.20;;;18.40;99.90;;;;;;5091941;28;20457;-54
2022/10/13 10:19:51;;;;;;;16.35;7.10;;;18.40;99.90;;;;;;5091571;28;20462;-55
2022/10/13 10:22:38;;;;;;;19.45;7.45;;;18.40;99.90;;;;;;5092245;28;20409;-55
2022/10/13 10:25:32;;;;;;;16.60;7.68;;;18.30;99.90;;;;;;5091471;28;20414;-54
2022/10/13 10:28:21;;;;;;;18.38;7.40;;;18.40;99.90;;;;;;5091287;28;20374;-54
2022/10/13 10:31:00;;;;;;;15.23;7.60;;;18.30;99.90;;;;;;5091252;28;20747;-54
2022/10/13 10:33:43;;;;;;;15.63;7.28;;;18.20;99.90;;;;;;5092235;28;20389;-54
2022/10/13 10:36:36;;;;;;;15.13;6.00;;;18.20;99.90;;;;;;5092081;28;20394;-54
2022/10/13 10:39:18;;;;;;;15.02;6.82;;;18.20;99.90;;;;;;5091142;28;20898;-54
2022/10/13 10:41:47;;;;;;;16.83;6.40;;;18.20;99.90;;;;;;5091030;28;20374;-55
2022/10/13 10:44:35;;;;;;;13.02;6.00;;;18.40;99.90;;;;;;5091899;28;20439;-57
2022/10/13 10:47:06;;;;;;;17.33;6.57;;;18.30;61.20;;;;;;5091595;28;20859;-54
2022/10/13 10:49:34;;;;;;;13.63;6.30;;;18.30;99.90;;;;;;5091804;28;20396;-54
2022/10/13 10:52:16;;;;;;;14.50;6.13;;;18.40;94.80;;;;;;5091839;28;20386;-54
2022/10/13 10:54:44;;;;;;;15.47;6.17;;;18.40;52.10;;;;;;5091056;28;20418;-54
2022/10/13 10:57:33;;;;;;;13.30;5.80;;;18.40;79.50;;;;;;5091631;28;20379;-54
2022/10/13 11:00:09;;;;;;;12.45;5.55;;;18.50;6.70;;;;;;5091318;28;20366;-54
2022/10/13 11:03:07;;;;;;;14.07;5.65;;;18.50;12.60;;;;;;5091083;28;20475;-55
2022/10/13 11:06:04;;;;;;;11.55;5.30;;;18.60;1.00;;;;;;5091272;28;20693;-54
2022/10/13 11:08:42;;;;;;;14.90;5.53;;;18.60;1.00;;;;;;5091351;28;20378;-54
2022/10/13 11:11:24;;;;;;;12.40;5.22;;;18.90;1.00;;;;;;5091914;28;20374;-54
2022/10/13 11:14:01;;;;;;;11.18;5.30;;;18.80;1.00;;;;;;5090371;28;20434;-54
2022/10/13 11:16:34;;;;;;;13.30;5.05;;;18.70;1.00;;;;;;5091076;28;20382;-54
2022/10/13 11:19:07;;;;;;;13.80;5.80;;;18.70;1.00;;;;;;5089496;28;20382;-54
2022/10/13 11:21:51;;;;;;;11.60;4.95;;;18.50;1.00;;;;;;5090853;28;20398;-55
2022/10/13 11:24:35;;;;;;;15.68;5.50;;;18.50;1.00;;;;;;5090838;28;20844;-54
2022/10/13 11:27:06;;;;;;;12.88;5.13;;;19.00;1.00;;;;;;5090901;28;20386;-55
2022/10/13 11:35:05;;;;;;;13.48;5.20;;;19.10;1.00;;;;;;5090297;28;20876;-54
2022/10/13 11:37:53;;;;;;;13.13;4.93;;;19.00;1.00;;;;;;5091230;28;20393;-54
2022/10/13 11:40:28;;;;;;;17.77;5.93;;;19.00;1.00;;;;;;5076269;28;20386;-54
2022/10/13 11:43:16;;;;;;;12.18;4.30;;;18.60;1.00;;;;;;5089751;28;20405;-54
2022/10/13 11:46:07;;;;;;;11.63;4.88;;;18.60;1.00;;;;;;5089687;28;20379;-55
2022/10/13 11:48:57;;;;;;;11.27;4.70;;;18.50;1.00;;;;;;5090753;28;20374;-55
2022/10/13 11:51:55;;;;;;;12.93;5.65;;;18.60;1.00;;;;;;5090542;28;20370;-54
2022/10/13 11:54:36;;;;;;;14.38;5.25;;;18.90;1.00;;;;;;5090742;28;20385;-54
2022/10/13 11:57:15;;;;;;;13.07;5.40;;;18.80;1.00;;;;;;5090592;28;20370;-54
2022/10/13 11:59:45;;;;;;;13.55;5.93;;;19.00;1.00;;;;;;5090055;28;20393;-54
2022/10/13 12:02:15;;;;;;;16.67;5.93;;;19.10;1.00;;;;;;5105658;28;20417;-54
2022/10/13 12:04:41;;;;;;;11.98;5.32;;;19.20;1.00;;;;;;5089404;28;20386;-55
2022/10/13 12:07:10;;;;;;;13.38;5.68;;;19.30;1.00;;;;;;5090096;28;20762;-55
2022/10/13 12:09:48;;;;;;;16.45;5.03;;;19.40;1.00;;;;;;5089772;28;20377;-55
2022/10/13 12:12:19;;;;;;;13.07;5.25;;;19.40;1.00;;;;;;5090110;28;20385;-54
2022/10/13 12:14:49;;;;;;;13.30;5.15;;;19.60;1.00;;;;;;5088989;28;20381;-55
2022/10/13 12:17:21;;;;;;;14.88;5.60;;;19.60;1.00;;;;;;5089800;28;20374;-55
2022/10/13 12:19:47;;;;;;;12.77;4.90;;;19.60;1.00;;;;;;5089576;28;20502;-54
2022/10/13 12:22:13;;;;;;;13.30;5.60;;;20.00;1.00;;;;;;5086010;28;20858;-55
2022/10/13 12:24:39;;;;;;;11.43;5.50;;;19.90;1.00;;;;;;5086135;28;20457;-56
2022/10/13 12:27:19;;;;;;;10.55;4.82;;;19.80;1.00;;;;;;5087041;28;20481;-54
2022/10/13 12:29:45;;;;;;;14.82;5.85;;;19.90;1.00;;;;;;5080779;28;20979;-56
2022/10/13 12:32:19;;;;;;;14.07;5.57;;;20.10;1.00;;;;;;5083871;28;20902;-55
2022/10/13 12:34:44;;;;;;;14.02;5.63;;;20.00;1.00;;;;;;5087731;28;20513;-55
2022/10/13 12:37:23;;;;;;;13.15;5.80;;;20.10;1.00;;;;;;5089757;28;20520;-55
2022/10/13 12:39:49;;;;;;;14.80;6.35;;;20.20;1.00;;;;;;5088892;28;20370;-55
2022/10/13 12:42:15;;;;;;;15.23;5.50;;;20.50;1.00;;;;;;5089546;28;20402;-55
2022/10/13 12:44:41;;;;;;;14.83;6.07;;;20.80;1.00;;;;;;5086288;28;20405;-56
2022/10/13 12:47:42;;;;;;;15.90;5.30;;;21.00;1.00;;;;;;5084560;28;20385;-55
2022/10/13 12:50:33;;;;;;;14.23;5.40;;;20.90;1.00;;;;;;5086174;28;20859;-55
2022/10/13 12:53:07;;;;;;;11.80;5.38;;;20.90;1.00;;;;;;5069833;28;21025;-55
2022/10/13 12:55:34;;;;;;;10.90;4.80;;;20.80;1.00;;;;;;5083915;28;21803;-55
2022/10/13 12:58:01;;;;;;;11.45;4.97;;;20.80;1.00;;;;;;5085495;28;20401;-55